Time;durP1;ratioP1;P1;durP2;ratioP2;P2;SDS_P1;SDS_P2;PMS_P1;PMS_P2;Temp;Humidity;BMP_temperature;BMP_pressure;BME280_temperature;BME280_humidity;BME280_pressure;Samples;Min_cycle;Max_cycle;Signal;HPM_P1;HPM_P2
2021/01/26 00:02:11;;;;;;;14.27;8.23;;;-0.90;99.90;;;;;;5035678;28;20028;-82
2021/01/26 00:04:37;;;;;;;16.13;8.43;;;-0.90;99.90;;;;;;5053537;28;20034;-82
2021/01/26 00:07:03;;;;;;;14.37;7.67;;;-0.80;99.90;;;;;;5033388;28;20040;-80
2021/01/26 00:09:28;;;;;;;12.27;6.37;;;-0.80;99.90;;;;;;5030453;28;20021;-81
2021/01/26 00:11:54;;;;;;;16.70;9.50;;;-0.80;99.90;;;;;;5030227;28;20095;-82
2021/01/26 00:14:20;;;;;;;18.63;10.47;;;-0.80;99.90;;;;;;5027608;28;20881;-81
2021/01/26 00:16:45;;;;;;;16.17;9.43;;;-0.80;99.90;;;;;;5013136;28;20025;-80
2021/01/26 00:19:11;;;;;;;19.13;9.57;;;-0.80;99.90;;;;;;5027996;28;20149;-81
2021/01/26 00:21:36;;;;;;;12.70;6.93;;;-0.80;99.90;;;;;;5028842;28;20457;-80
2021/01/26 00:24:03;;;;;;;17.23;9.53;;;-0.80;99.90;;;;;;5029549;28;20107;-81
2021/01/26 00:26:29;;;;;;;16.53;9.10;;;-0.80;99.90;;;;;;5026915;28;20037;-80
2021/01/26 00:28:55;;;;;;;18.37;9.60;;;-0.80;99.90;;;;;;5011484;28;20220;-81
2021/01/26 00:31:20;;;;;;;13.13;7.57;;;-0.80;99.90;;;;;;5029482;28;20475;-82
2021/01/26 00:33:46;;;;;;;18.57;8.23;;;-0.80;99.90;;;;;;5030979;28;20491;-82
2021/01/26 00:36:12;;;;;;;14.80;8.70;;;-0.80;99.90;;;;;;5031862;28;20033;-82
2021/01/26 00:38:37;;;;;;;16.53;8.73;;;-0.80;99.90;;;;;;5039912;28;20611;-82
2021/01/26 00:41:03;;;;;;;17.90;9.13;;;-0.80;99.90;;;;;;5012721;28;20076;-81
2021/01/26 00:43:30;;;;;;;17.53;10.07;;;-0.80;99.90;;;;;;5030630;28;20079;-81
2021/01/26 00:45:56;;;;;;;16.97;8.87;;;-0.80;99.90;;;;;;5012677;28;20021;-82
2021/01/26 00:48:21;;;;;;;13.90;7.30;;;-0.80;99.90;;;;;;5010873;28;20060;-82
2021/01/26 00:50:47;;;;;;;16.13;8.87;;;-0.80;99.90;;;;;;5011056;28;20587;-83
2021/01/26 00:53:14;;;;;;;16.93;7.67;;;-0.80;99.90;;;;;;5012266;28;20029;-82
2021/01/26 00:55:40;;;;;;;10.23;5.37;;;-0.80;99.90;;;;;;5029847;28;20044;-81
2021/01/26 00:58:06;;;;;;;15.50;7.47;;;-0.80;99.90;;;;;;5029118;28;20400;-81
2021/01/26 01:00:38;;;;;;;15.47;8.47;;;-0.80;99.90;;;;;;5025709;28;20094;-80
2021/01/26 01:03:06;;;;;;;18.30;10.20;;;-0.80;99.90;;;;;;5044425;28;20032;-80
2021/01/26 01:05:32;;;;;;;16.53;8.70;;;-0.80;99.90;;;;;;5048769;28;20040;-82
2021/01/26 01:07:58;;;;;;;16.83;8.90;;;-0.80;99.90;;;;;;5039020;28;20488;-81
2021/01/26 01:10:27;;;;;;;15.77;8.40;;;-0.80;99.90;;;;;;5037293;28;20076;-81
2021/01/26 01:12:53;;;;;;;18.75;10.02;;;-0.80;99.90;;;;;;5034916;28;20114;-82
2021/01/26 01:15:21;;;;;;;19.47;10.13;;;-0.80;99.90;;;;;;5030937;28;20033;-82
2021/01/26 01:17:47;;;;;;;18.10;8.97;;;-0.80;99.90;;;;;;5035366;28;20045;-82
2021/01/26 01:20:19;;;;;;;17.17;8.70;;;-0.80;99.90;;;;;;5035392;28;20472;-82
2021/01/26 01:22:44;;;;;;;17.17;8.57;;;-0.80;99.90;;;;;;5031263;28;20029;-81
2021/01/26 01:25:10;;;;;;;18.07;8.73;;;-0.80;99.90;;;;;;5032451;28;20048;-80
2021/01/26 01:27:36;;;;;;;16.90;9.17;;;-0.80;99.90;;;;;;5013565;28;20053;-81
2021/01/26 01:30:08;;;;;;;16.20;8.33;;;-0.80;99.90;;;;;;5031885;28;20100;-81
2021/01/26 01:32:33;;;;;;;18.60;9.43;;;-0.70;99.90;;;;;;5016373;28;20036;-83
2021/01/26 01:34:59;;;;;;;18.97;9.57;;;-0.70;99.90;;;;;;5040485;28;20030;-82
2021/01/26 01:37:25;;;;;;;16.90;8.67;;;-0.70;99.90;;;;;;5054346;28;20041;-82
2021/01/26 01:39:50;;;;;;;19.00;9.87;;;-0.70;99.90;;;;;;5053647;28;20039;-83
2021/01/26 01:42:16;;;;;;;13.00;6.70;;;-0.70;99.90;;;;;;5044853;28;20033;-82
2021/01/26 01:44:42;;;;;;;16.33;8.63;;;-0.70;99.90;;;;;;5031816;28;20030;-82
2021/01/26 01:47:16;;;;;;;18.20;10.20;;;-0.70;99.90;;;;;;5013932;28;20041;-84
2021/01/26 01:49:45;;;;;;;16.50;9.30;;;-0.70;99.90;;;;;;5028364;28;20517;-83
2021/01/26 01:52:16;;;;;;;18.35;10.10;;;-0.70;99.90;;;;;;5014018;28;20033;-84
2021/01/26 01:54:48;;;;;;;17.40;10.47;;;-0.70;99.90;;;;;;5032120;28;20029;-82
2021/01/26 01:57:30;;;;;;;19.10;10.17;;;-0.70;99.90;;;;;;5032764;28;20416;-81
2021/01/26 02:00:08;;;;;;;12.40;6.37;;;-0.70;99.90;;;;;;5030990;28;20028;-84
2021/01/26 02:02:37;;;;;;;15.60;7.97;;;-0.70;99.90;;;;;;5030812;28;20203;-83
2021/01/26 02:05:04;;;;;;;10.70;6.40;;;-0.70;99.90;;;;;;5030096;28;20391;-81
2021/01/26 02:07:33;;;;;;;15.30;7.53;;;-0.70;99.90;;;;;;5030784;28;20474;-83
2021/01/26 02:09:59;;;;;;;15.27;9.07;;;-0.70;99.90;;;;;;5046785;28;20025;-81
2021/01/26 02:12:26;;;;;;;16.03;9.60;;;-0.70;99.90;;;;;;5046292;28;20304;-81
2021/01/26 02:14:56;;;;;;;17.97;8.03;;;-0.70;99.90;;;;;;5032392;28;20036;-81
2021/01/26 02:17:27;;;;;;;15.43;7.63;;;-0.70;99.90;;;;;;5033023;28;20052;-82
2021/01/26 02:20:18;;;;;;;19.50;10.03;;;-0.70;99.90;;;;;;5030914;28;20031;-82
2021/01/26 02:23:06;;;;;;;13.40;7.70;;;-0.70;99.90;;;;;;5029081;28;20541;-82
2021/01/26 02:25:50;;;;;;;13.47;7.77;;;-0.70;99.90;;;;;;5038412;28;20098;-83
2021/01/26 02:28:34;;;;;;;18.63;8.67;;;-0.70;99.90;;;;;;5034658;28;20083;-82
2021/01/26 02:31:12;;;;;;;20.17;9.27;;;-0.70;99.90;;;;;;5050176;28;20074;-81
2021/01/26 02:34:04;;;;;;;17.33;9.57;;;-0.70;99.90;;;;;;5030333;28;20025;-82
2021/01/26 02:37:04;;;;;;;20.87;9.73;;;-0.70;99.90;;;;;;5038263;28;20082;-83
2021/01/26 02:39:51;;;;;;;18.97;9.70;;;-0.70;99.90;;;;;;5050987;28;20033;-82
2021/01/26 02:42:33;;;;;;;17.27;8.80;;;-0.70;99.90;;;;;;5047448;28;20026;-82
2021/01/26 02:45:05;;;;;;;16.90;9.17;;;-0.70;99.90;;;;;;5040921;28;20022;-80
2021/01/26 02:47:42;;;;;;;14.83;7.43;;;-0.80;99.90;;;;;;5062332;28;20037;-83
2021/01/26 02:50:49;;;;;;;12.07;6.47;;;-0.80;99.90;;;;;;5056577;28;20055;-80
2021/01/26 02:53:40;;;;;;;17.33;9.17;;;-0.70;99.90;;;;;;4951135;29;20087;-80
2021/01/26 02:56:29;;;;;;;19.53;8.83;;;-0.70;99.90;;;;;;4951087;29;20486;-81
2021/01/26 02:58:59;;;;;;;16.83;8.67;;;-0.80;99.90;;;;;;4947214;29;20457;-80
2021/01/26 03:01:31;;;;;;;20.25;10.40;;;-0.80;99.90;;;;;;4950295;28;20035;-80
2021/01/26 03:04:03;;;;;;;17.83;8.93;;;-0.80;99.90;;;;;;4937264;28;20999;-82
2021/01/26 03:06:31;;;;;;;16.63;9.00;;;-0.80;99.90;;;;;;4947155;28;20043;-82
2021/01/26 03:09:09;;;;;;;18.70;9.77;;;-0.80;99.90;;;;;;4947585;28;20027;-82
2021/01/26 03:11:44;;;;;;;17.00;9.57;;;-0.80;99.90;;;;;;4950183;29;20115;-82
2021/01/26 03:14:18;;;;;;;16.47;8.33;;;-0.80;99.90;;;;;;4964747;28;20042;-83
2021/01/26 03:16:45;;;;;;;18.70;9.03;;;-0.80;99.90;;;;;;4969461;28;20044;-82
2021/01/26 03:19:18;;;;;;;15.30;7.70;;;-0.80;99.90;;;;;;4960308;28;20039;-81
2021/01/26 03:21:49;;;;;;;16.33;9.07;;;-0.80;99.90;;;;;;4945815;29;20039;-81
2021/01/26 03:24:23;;;;;;;16.00;8.53;;;-0.80;99.90;;;;;;4992655;28;20059;-82
2021/01/26 03:26:51;;;;;;;14.63;7.20;;;-0.80;99.90;;;;;;5044132;28;20053;-82
2021/01/26 03:29:28;;;;;;;17.37;8.50;;;-0.80;99.90;;;;;;5031825;28;20083;-81
2021/01/26 03:31:56;;;;;;;18.13;8.70;;;-0.90;99.90;;;;;;5049896;28;20151;-81
2021/01/26 03:34:23;;;;;;;20.77;11.33;;;-0.90;99.90;;;;;;5072925;28;20040;-81
2021/01/26 03:36:49;;;;;;;19.27;9.43;;;-0.90;99.90;;;;;;5072222;28;20033;-83
2021/01/26 03:39:15;;;;;;;19.30;10.10;;;-0.90;99.90;;;;;;5062204;28;20052;-82
2021/01/26 03:41:41;;;;;;;20.33;10.60;;;-0.90;99.90;;;;;;5043015;28;20029;-81
2021/01/26 03:44:10;;;;;;;21.90;12.13;;;-0.90;99.90;;;;;;5040255;28;20032;-81
2021/01/26 03:46:47;;;;;;;20.30;11.50;;;-0.90;99.90;;;;;;5059268;28;20025;-82
2021/01/26 03:49:42;;;;;;;20.13;10.87;;;-0.90;99.90;;;;;;5034115;28;20126;-82
2021/01/26 03:52:26;;;;;;;21.77;9.93;;;-0.90;99.90;;;;;;5029571;28;20025;-82
2021/01/26 03:55:01;;;;;;;21.70;11.27;;;-0.90;99.90;;;;;;5047925;28;20041;-83
2021/01/26 03:57:39;;;;;;;20.50;11.27;;;-0.90;99.90;;;;;;5062301;28;20021;-82
2021/01/26 04:00:24;;;;;;;19.67;9.03;;;-0.90;99.90;;;;;;5070910;28;20021;-82
2021/01/26 04:03:05;;;;;;;20.67;11.27;;;-0.90;99.90;;;;;;5069603;28;20039;-82
2021/01/26 04:05:57;;;;;;;22.67;11.83;;;-0.90;99.90;;;;;;5050405;28;20064;-81
2021/01/26 04:08:36;;;;;;;18.47;9.77;;;-0.90;99.90;;;;;;5050604;28;20114;-84
2021/01/26 04:11:17;;;;;;;20.37;10.87;;;-0.90;99.90;;;;;;5043397;28;20032;-82
2021/01/26 04:13:53;;;;;;;21.33;10.77;;;-0.90;99.90;;;;;;5054458;28;20488;-82
2021/01/26 04:16:22;;;;;;;21.63;10.83;;;-0.90;99.90;;;;;;5013958;28;20444;-82
2021/01/26 04:18:50;;;;;;;21.73;10.68;;;-1.00;99.90;;;;;;5056523;28;20013;-82
2021/01/26 04:21:18;;;;;;;17.77;9.30;;;-1.00;99.90;;;;;;5060813;28;20040;-82
2021/01/26 04:23:43;;;;;;;22.27;11.50;;;-1.00;99.90;;;;;;5072940;28;20032;-84
2021/01/26 04:26:16;;;;;;;16.43;8.30;;;-1.00;99.90;;;;;;5050921;28;20057;-82
2021/01/26 04:28:47;;;;;;;19.10;9.37;;;-1.10;99.90;;;;;;5036585;28;20056;-83
2021/01/26 04:31:14;;;;;;;18.83;9.17;;;-1.10;99.90;;;;;;5039497;28;20195;-81
2021/01/26 04:33:41;;;;;;;17.57;9.20;;;-1.10;99.90;;;;;;5044669;28;20018;-82
2021/01/26 04:36:08;;;;;;;16.73;8.27;;;-1.20;99.90;;;;;;5037621;28;20048;-81
2021/01/26 04:38:35;;;;;;;18.97;9.07;;;-1.20;99.90;;;;;;5031897;28;20038;-82
2021/01/26 04:41:18;;;;;;;21.37;10.33;;;-1.20;99.90;;;;;;5044384;28;20032;-81
2021/01/26 04:44:22;;;;;;;13.70;6.57;;;-1.20;99.90;;;;;;5032029;28;20025;-82
2021/01/26 04:47:08;;;;;;;12.03;7.00;;;-1.30;99.90;;;;;;5055027;28;20081;-82
2021/01/26 04:49:58;;;;;;;10.43;5.80;;;-1.30;99.90;;;;;;5020373;28;20480;-83
2021/01/26 04:52:33;;;;;;;15.57;8.40;;;-1.30;99.90;;;;;;5027588;28;20028;-83
2021/01/26 04:55:38;;;;;;;16.97;8.90;;;-1.30;99.90;;;;;;5045979;28;20033;-82
2021/01/26 04:58:42;;;;;;;11.77;5.77;;;-1.30;99.90;;;;;;5052157;28;20022;-81
2021/01/26 05:01:28;;;;;;;13.77;7.43;;;-1.30;99.90;;;;;;4992374;28;20441;-81
2021/01/26 05:04:19;;;;;;;13.60;6.53;;;-1.30;99.90;;;;;;4988036;28;20058;-81
2021/01/26 05:06:50;;;;;;;13.97;7.40;;;-1.30;99.90;;;;;;4989583;28;20034;-81
2021/01/26 05:09:26;;;;;;;15.50;6.83;;;-1.30;99.90;;;;;;4986232;28;20042;-81
2021/01/26 05:11:53;;;;;;;15.10;8.37;;;-1.30;99.90;;;;;;4972489;28;20154;-83
2021/01/26 05:14:23;;;;;;;15.80;8.27;;;-1.30;99.90;;;;;;4990510;28;20053;-81
2021/01/26 05:17:31;;;;;;;12.13;6.50;;;-1.30;99.90;;;;;;4984430;28;20038;-83
2021/01/26 05:20:07;;;;;;;12.90;5.60;;;-1.30;99.90;;;;;;4951442;28;20045;-82
2021/01/26 05:22:54;;;;;;;12.53;6.37;;;-1.20;99.90;;;;;;4952562;29;20453;-82
2021/01/26 05:25:22;;;;;;;8.93;4.67;;;-1.30;99.90;;;;;;4943959;29;20121;-83
2021/01/26 05:27:49;;;;;;;12.60;6.10;;;-1.20;99.90;;;;;;4957711;28;20044;-82
2021/01/26 05:30:26;;;;;;;9.63;5.23;;;-1.30;99.90;;;;;;4919848;29;20070;-81
2021/01/26 05:32:53;;;;;;;8.23;4.80;;;-1.30;99.90;;;;;;4938083;29;20062;-81
2021/01/26 05:35:19;;;;;;;8.73;4.50;;;-1.30;99.90;;;;;;4954864;28;20101;-81
2021/01/26 05:37:47;;;;;;;9.87;5.50;;;-1.30;99.90;;;;;;4971594;28;20069;-84
2021/01/26 05:40:29;;;;;;;15.07;5.87;;;-1.20;99.90;;;;;;4973170;28;20191;-82
2021/01/26 05:43:00;;;;;;;14.23;6.73;;;-1.20;99.90;;;;;;4967608;28;20045;-82
2021/01/26 05:45:32;;;;;;;11.23;5.63;;;-1.20;99.90;;;;;;4971581;28;20038;-82
2021/01/26 05:48:14;;;;;;;13.93;7.13;;;-1.20;99.90;;;;;;4969074;28;20065;-84
2021/01/26 05:50:41;;;;;;;12.00;6.17;;;-1.30;99.90;;;;;;4971759;28;20039;-84
2021/01/26 05:53:24;;;;;;;14.13;7.13;;;-1.20;99.90;;;;;;4970792;28;20042;-80
2021/01/26 05:56:08;;;;;;;11.93;6.17;;;-1.20;99.90;;;;;;4969858;28;20029;-76
2021/01/26 05:58:34;;;;;;;13.80;7.00;;;-1.20;99.90;;;;;;5031664;28;20029;-79
2021/01/26 06:01:05;;;;;;;12.27;6.20;;;-1.20;99.90;;;;;;5050336;28;20041;-82
2021/01/26 06:03:31;;;;;;;10.47;5.13;;;-1.20;99.90;;;;;;5035377;28;20040;-84
2021/01/26 06:06:14;;;;;;;11.83;5.40;;;-1.20;99.90;;;;;;5036838;28;20484;-82
2021/01/26 06:08:51;;;;;;;12.20;4.87;;;-1.20;99.90;;;;;;5027379;28;20056;-82
2021/01/26 06:11:29;;;;;;;12.93;5.80;;;-1.20;99.90;;;;;;5029650;28;20061;-81
2021/01/26 06:14:15;;;;;;;10.90;6.57;;;-1.20;99.90;;;;;;5027059;28;20072;-82
2021/01/26 06:16:42;;;;;;;11.27;5.83;;;-1.20;99.90;;;;;;5030269;28;20087;-78
2021/01/26 06:19:13;;;;;;;10.07;5.50;;;-1.20;99.90;;;;;;5030891;28;20488;-82
2021/01/26 06:21:51;;;;;;;9.63;4.63;;;-1.20;99.90;;;;;;5032681;28;20029;-84
2021/01/26 06:24:25;;;;;;;11.77;4.33;;;-1.20;99.90;;;;;;5034358;28;20797;-83
2021/01/26 06:27:29;;;;;;;9.23;4.77;;;-1.10;99.90;;;;;;5052016;28;20041;-83
2021/01/26 06:30:05;;;;;;;9.37;3.97;;;-1.10;99.90;;;;;;5054772;28;20089;-81
2021/01/26 06:32:58;;;;;;;9.70;5.27;;;-1.10;99.90;;;;;;5059617;28;20029;-83
2021/01/26 06:36:01;;;;;;;13.07;6.30;;;-1.10;99.90;;;;;;5068427;28;20029;-82
2021/01/26 06:38:32;;;;;;;13.30;5.37;;;-1.10;99.90;;;;;;4948780;28;20040;-83
2021/01/26 06:41:09;;;;;;;9.47;4.47;;;-1.10;99.90;;;;;;4960071;28;20075;-81
2021/01/26 06:43:56;;;;;;;11.40;5.67;;;-1.10;99.90;;;;;;4955786;28;20023;-83
2021/01/26 06:46:37;;;;;;;15.27;7.63;;;-1.10;99.90;;;;;;4950367;29;20030;-84
2021/01/26 06:49:45;;;;;;;10.97;5.80;;;-1.20;99.90;;;;;;4949161;28;20056;-85
2021/01/26 06:52:16;;;;;;;8.83;3.10;;;-1.20;99.90;;;;;;4946376;29;20422;-85
2021/01/26 06:54:50;;;;;;;13.33;6.03;;;-1.10;99.90;;;;;;4932261;29;20043;-85
2021/01/26 06:57:33;;;;;;;12.93;6.13;;;-1.20;99.90;;;;;;4949755;29;20027;-83
2021/01/26 07:00:34;;;;;;;7.90;3.47;;;-1.20;99.90;;;;;;4951908;28;20141;-84
2021/01/26 07:03:25;;;;;;;9.07;4.27;;;-1.20;99.90;;;;;;4933224;29;20475;-83
2021/01/26 07:06:22;;;;;;;8.43;4.70;;;-1.20;99.90;;;;;;4949473;28;20038;-84
2021/01/26 07:09:10;;;;;;;7.03;2.83;;;-1.10;99.90;;;;;;4911538;29;20133;-83
2021/01/26 07:11:45;;;;;;;9.80;5.37;;;-1.10;99.90;;;;;;4861820;29;20037;-83
2021/01/26 07:14:38;;;;;;;6.17;2.87;;;-1.10;99.90;;;;;;4870508;29;20130;-85
2021/01/26 07:17:06;;;;;;;5.93;3.50;;;-1.00;99.90;;;;;;4933305;29;20455;-84
2021/01/26 07:19:41;;;;;;;11.77;5.77;;;-1.00;99.90;;;;;;4893080;29;20036;-84
2021/01/26 07:22:35;;;;;;;9.20;4.40;;;-1.00;99.90;;;;;;4914033;29;20042;-80
2021/01/26 07:25:19;;;;;;;5.57;3.13;;;-1.10;99.90;;;;;;4913400;29;20056;-80
2021/01/26 07:28:11;;;;;;;7.20;2.87;;;-1.20;99.90;;;;;;4929844;29;20150;-79
2021/01/26 07:30:53;;;;;;;11.47;5.13;;;-1.20;99.90;;;;;;4932879;29;20047;-81
2021/01/26 07:33:33;;;;;;;10.10;4.00;;;-1.30;99.90;;;;;;4926547;29;20047;-79
2021/01/26 07:36:27;;;;;;;7.18;3.13;;;-1.30;99.90;;;;;;4928129;29;20513;-79
2021/01/26 07:39:22;;;;;;;5.10;2.90;;;-1.30;99.90;;;;;;4931694;29;20039;-80
2021/01/26 07:42:15;;;;;;;5.17;2.87;;;-1.20;99.90;;;;;;4930926;29;20031;-77
2021/01/26 07:44:47;;;;;;;4.93;3.30;;;-1.20;99.90;;;;;;4931319;29;20522;-77
2021/01/26 07:47:27;;;;;;;4.00;2.40;;;-1.20;99.90;;;;;;4951364;28;20135;-76
2021/01/26 07:50:04;;;;;;;6.30;3.67;;;-1.20;99.90;;;;;;5023181;28;20049;-76
2021/01/26 07:52:33;;;;;;;7.30;3.57;;;-1.20;99.90;;;;;;5026207;28;20089;-75
2021/01/26 07:54:59;;;;;;;4.00;1.30;;;-1.20;99.90;;;;;;5027423;28;20036;-76
2021/01/26 07:57:34;;;;;;;5.60;2.93;;;-1.10;99.90;;;;;;5048635;28;20033;-75
2021/01/26 08:00:00;;;;;;;7.30;3.60;;;-1.20;99.90;;;;;;5049690;28;20059;-76
2021/01/26 08:02:33;;;;;;;6.63;3.67;;;-1.50;99.90;;;;;;5049423;28;20029;-75
2021/01/26 08:04:58;;;;;;;12.07;5.47;;;-1.70;99.90;;;;;;5052401;28;20100;-77
2021/01/26 08:07:30;;;;;;;8.00;4.00;;;-1.80;99.90;;;;;;5054383;28;20471;-77
2021/01/26 08:09:58;;;;;;;11.37;5.23;;;-1.90;99.90;;;;;;5048591;28;20502;-77
2021/01/26 08:12:32;;;;;;;9.53;4.77;;;-1.90;99.90;;;;;;5058492;28;20025;-76
2021/01/26 08:15:30;;;;;;;16.47;6.20;;;-1.90;99.90;;;;;;5052247;28;20677;-76
2021/01/26 08:17:57;;;;;;;13.33;5.83;;;-2.00;99.90;;;;;;5054603;28;20040;-76
2021/01/26 08:20:33;;;;;;;9.60;4.53;;;-1.90;99.90;;;;;;5052588;28;20036;-76
2021/01/26 08:23:05;;;;;;;11.90;5.63;;;-1.90;99.90;;;;;;5050074;28;20025;-78
2021/01/26 08:25:36;;;;;;;11.97;5.50;;;-1.90;99.90;;;;;;5042427;28;20050;-76
2021/01/26 08:28:10;;;;;;;15.83;6.13;;;-1.90;99.90;;;;;;5044117;28;20136;-76
2021/01/26 08:30:35;;;;;;;15.53;7.30;;;-1.80;99.90;;;;;;5049561;28;20052;-76
2021/01/26 08:33:06;;;;;;;11.77;5.37;;;-1.80;99.90;;;;;;5031532;28;20080;-76
2021/01/26 08:35:33;;;;;;;9.30;4.70;;;-1.80;99.90;;;;;;5032034;28;20037;-76
2021/01/26 08:38:00;;;;;;;13.77;6.40;;;-1.70;99.90;;;;;;5050122;28;20507;-76
2021/01/26 08:40:29;;;;;;;14.43;5.70;;;-1.70;99.90;;;;;;5050215;28;20033;-78
2021/01/26 08:42:57;;;;;;;12.48;4.78;;;-1.70;99.90;;;;;;5041756;28;20040;-76
2021/01/26 08:45:25;;;;;;;7.33;3.77;;;-1.70;99.90;;;;;;5033867;28;20052;-77
2021/01/26 08:48:20;;;;;;;9.07;3.70;;;-1.70;99.90;;;;;;5047173;28;20170;-78
2021/01/26 08:51:10;;;;;;;9.93;3.03;;;-1.60;99.90;;;;;;4987894;28;20101;-79
2021/01/26 08:53:38;;;;;;;5.83;2.67;;;-1.60;99.90;;;;;;5013936;28;20061;-80
2021/01/26 08:56:12;;;;;;;8.73;4.43;;;-1.60;99.90;;;;;;5008880;28;20073;-79
2021/01/26 08:58:47;;;;;;;8.77;4.83;;;-1.60;99.90;;;;;;4979989;28;20034;-78
2021/01/26 09:01:35;;;;;;;9.07;4.40;;;-1.50;99.90;;;;;;5014136;28;20037;-78
2021/01/26 09:04:13;;;;;;;11.93;4.65;;;-1.50;99.90;;;;;;5012987;28;20046;-79
2021/01/26 09:06:38;;;;;;;6.43;3.50;;;-1.50;99.90;;;;;;5031751;28;20090;-79
2021/01/26 09:09:06;;;;;;;6.73;3.57;;;-1.40;99.90;;;;;;5024027;28;20103;-78
2021/01/26 09:11:40;;;;;;;7.97;3.60;;;-1.40;99.90;;;;;;5016851;28;20205;-78
2021/01/26 09:14:27;;;;;;;7.87;2.77;;;-1.30;99.90;;;;;;5004403;28;20049;-77
2021/01/26 09:17:00;;;;;;;6.17;3.10;;;-1.20;99.90;;;;;;5013062;28;20068;-79
2021/01/26 09:19:36;;;;;;;8.30;3.73;;;-1.20;99.90;;;;;;5013856;28;20029;-79
2021/01/26 09:22:08;;;;;;;8.27;3.57;;;-1.20;99.90;;;;;;5013045;28;20376;-78
2021/01/26 09:24:37;;;;;;;5.93;2.73;;;-1.10;99.90;;;;;;5004295;28;20073;-79
2021/01/26 09:27:33;;;;;;;6.47;3.35;;;-1.20;99.90;;;;;;5018717;28;20073;-78
2021/01/26 09:30:22;;;;;;;7.43;3.10;;;-1.20;99.90;;;;;;5049436;28;20406;-78
2021/01/26 09:33:14;;;;;;;6.53;3.37;;;-1.10;99.90;;;;;;5044837;28;20037;-77
2021/01/26 09:35:51;;;;;;;6.20;3.13;;;-1.00;99.90;;;;;;5048052;28;20055;-78
2021/01/26 09:38:32;;;;;;;5.60;3.20;;;-0.90;99.90;;;;;;5031056;28;20522;-77
2021/01/26 09:41:01;;;;;;;7.83;4.60;;;-1.00;99.90;;;;;;5046182;28;20032;-79
2021/01/26 09:43:50;;;;;;;6.65;3.42;;;-0.90;99.90;;;;;;5044475;28;20035;-79
2021/01/26 09:46:26;;;;;;;8.55;4.03;;;-0.90;99.90;;;;;;5041412;28;20033;-76
2021/01/26 09:49:11;;;;;;;11.47;5.07;;;-0.90;99.90;;;;;;5042611;28;20024;-79
2021/01/26 09:51:41;;;;;;;7.77;3.67;;;-0.80;99.90;;;;;;5043968;28;20079;-79
2021/01/26 09:54:16;;;;;;;9.95;4.38;;;-0.90;99.90;;;;;;5038440;28;20025;-76
2021/01/26 09:56:42;;;;;;;8.10;2.90;;;-0.90;99.90;;;;;;5041272;28;20543;-77
2021/01/26 09:59:10;;;;;;;7.83;3.60;;;-1.00;99.90;;;;;;5051588;28;20059;-85
2021/01/26 10:01:40;;;;;;;11.77;5.23;;;-1.00;99.90;;;;;;5044768;28;20032;-77
2021/01/26 10:04:07;;;;;;;9.35;3.28;;;-0.90;99.90;;;;;;5040745;28;20055;-77
2021/01/26 10:06:36;;;;;;;5.87;2.37;;;-0.90;99.90;;;;;;5042408;28;20067;-78
2021/01/26 10:09:16;;;;;;;9.85;4.00;;;-0.80;99.90;;;;;;5044419;28;20108;-77
2021/01/26 10:11:42;;;;;;;6.23;3.47;;;-0.70;99.90;;;;;;5028464;28;20033;-77
2021/01/26 10:14:15;;;;;;;3.13;1.97;;;-0.60;99.90;;;;;;5039923;28;20017;-79
2021/01/26 10:16:44;;;;;;;5.90;3.30;;;-0.60;99.90;;;;;;5044981;28;20098;-78
2021/01/26 10:19:25;;;;;;;6.97;2.80;;;-0.60;99.90;;;;;;5044403;28;20033;-76
2021/01/26 10:21:52;;;;;;;5.87;2.93;;;-0.50;99.90;;;;;;5045042;28;20028;-77
2021/01/26 10:24:24;;;;;;;8.60;3.90;;;-0.50;99.90;;;;;;5049487;28;20132;-77
2021/01/26 10:26:50;;;;;;;5.50;2.80;;;-0.40;99.90;;;;;;5048280;28;20032;-77
2021/01/26 10:29:22;;;;;;;4.80;2.67;;;-0.40;99.90;;;;;;5042473;28;20089;-77
2021/01/26 10:32:00;;;;;;;7.67;3.53;;;-0.40;99.90;;;;;;5048427;28;20488;-77
2021/01/26 10:34:51;;;;;;;6.50;3.23;;;-0.30;99.90;;;;;;5049278;28;20025;-79
2021/01/26 10:37:23;;;;;;;7.17;2.93;;;-0.30;99.90;;;;;;5006958;28;20087;-78
2021/01/26 10:40:08;;;;;;;4.13;2.13;;;-0.20;99.90;;;;;;5025700;28;20148;-78
2021/01/26 10:42:34;;;;;;;4.10;2.77;;;-0.30;99.90;;;;;;5012184;28;20073;-79
2021/01/26 10:45:00;;;;;;;5.50;2.80;;;-0.30;99.90;;;;;;5009169;28;20101;-78
2021/01/26 10:47:38;;;;;;;8.40;2.60;;;-0.20;99.90;;;;;;5007375;28;20083;-77
2021/01/26 10:50:07;;;;;;;5.80;2.57;;;-0.20;99.90;;;;;;5000760;28;20034;-77
2021/01/26 10:52:46;;;;;;;7.60;2.60;;;-0.20;99.90;;;;;;5015631;28;20104;-77
2021/01/26 10:55:16;;;;;;;12.77;3.03;;;-0.10;99.90;;;;;;5008028;28;20042;-78
2021/01/26 10:57:42;;;;;;;5.22;2.65;;;-0.20;99.90;;;;;;5008259;28;20038;-79
2021/01/26 11:00:10;;;;;;;4.17;2.53;;;-0.20;99.90;;;;;;5006486;28;20770;-77
2021/01/26 11:02:36;;;;;;;5.23;2.53;;;-0.10;99.90;;;;;;5008048;28;20097;-81
2021/01/26 11:05:08;;;;;;;5.47;2.90;;;-0.10;99.90;;;;;;5006132;28;20038;-76
2021/01/26 11:07:34;;;;;;;4.47;2.07;;;0.00;99.90;;;;;;5003674;28;20088;-79
2021/01/26 11:10:00;;;;;;;6.77;2.50;;;-0.10;99.90;;;;;;5042463;28;20555;-78
2021/01/26 11:12:25;;;;;;;7.13;2.90;;;0.00;99.90;;;;;;5046178;28;20044;-77
2021/01/26 11:14:54;;;;;;;6.23;2.70;;;0.00;99.90;;;;;;5040327;28;20045;-78
2021/01/26 11:17:21;;;;;;;4.32;2.45;;;-0.10;99.90;;;;;;5044996;28;20025;-78
2021/01/26 11:19:48;;;;;;;4.07;1.97;;;-0.10;99.90;;;;;;5042949;28;20052;-79
2021/01/26 11:22:15;;;;;;;6.10;2.70;;;0.00;99.90;;;;;;5042566;28;20027;-79
2021/01/26 11:24:42;;;;;;;5.80;2.43;;;0.00;99.90;;;;;;5047399;28;20053;-78
2021/01/26 11:27:08;;;;;;;2.33;1.37;;;0.00;99.90;;;;;;5043895;28;20565;-78
2021/01/26 11:29:33;;;;;;;3.53;2.37;;;0.00;99.90;;;;;;5042130;28;20025;-77
2021/01/26 11:31:59;;;;;;;4.17;2.43;;;-0.10;99.90;;;;;;5047174;28;20098;-79
2021/01/26 11:34:25;;;;;;;2.33;1.50;;;0.00;99.90;;;;;;5040470;28;20025;-79
2021/01/26 11:36:50;;;;;;;5.70;1.80;;;0.00;99.90;;;;;;5048244;28;20113;-78
2021/01/26 11:39:16;;;;;;;5.33;1.97;;;0.00;99.90;;;;;;5048040;28;20033;-80
2021/01/26 11:41:41;;;;;;;3.83;1.87;;;0.00;99.90;;;;;;5048298;28;20033;-78
2021/01/26 11:44:07;;;;;;;5.93;2.77;;;0.00;99.90;;;;;;5044680;28;20068;-76
2021/01/26 11:46:33;;;;;;;5.80;2.53;;;0.00;99.90;;;;;;5048889;28;20044;-76
2021/01/26 11:48:59;;;;;;;5.27;2.40;;;-0.10;99.90;;;;;;5048753;28;20029;-77
2021/01/26 11:51:25;;;;;;;5.93;2.20;;;0.00;99.90;;;;;;5049076;28;20037;-78
2021/01/26 11:53:51;;;;;;;3.83;2.27;;;-0.10;99.90;;;;;;5049089;28;20029;-76
2021/01/26 11:56:19;;;;;;;3.40;1.90;;;-0.10;99.90;;;;;;5054010;28;20025;-78
2021/01/26 11:58:45;;;;;;;5.47;2.17;;;-0.10;99.90;;;;;;5049782;28;20447;-75
2021/01/26 12:01:11;;;;;;;4.00;1.80;;;0.00;99.90;;;;;;5050294;28;20504;-75
2021/01/26 12:03:38;;;;;;;3.70;2.10;;;0.00;99.90;;;;;;5044507;28;20037;-74
2021/01/26 12:06:03;;;;;;;4.30;1.97;;;0.00;99.90;;;;;;5032779;28;20049;-76
2021/01/26 12:08:29;;;;;;;7.63;2.40;;;-0.10;99.90;;;;;;5044889;28;20048;-76
2021/01/26 12:10:55;;;;;;;6.07;2.07;;;0.00;99.90;;;;;;5041240;28;20471;-75
2021/01/26 12:13:21;;;;;;;4.57;2.03;;;-0.10;99.90;;;;;;5048682;28;20447;-77
2021/01/26 12:15:46;;;;;;;3.73;2.13;;;0.00;99.90;;;;;;5050764;28;20029;-75
2021/01/26 12:18:12;;;;;;;3.77;1.60;;;0.00;99.90;;;;;;5048297;28;20463;-76
2021/01/26 12:20:39;;;;;;;3.43;1.57;;;0.00;99.90;;;;;;5044544;28;20079;-77
2021/01/26 12:23:05;;;;;;;4.97;2.17;;;0.00;99.90;;;;;;5047662;28;20083;-77
2021/01/26 12:25:32;;;;;;;5.77;1.90;;;0.10;99.90;;;;;;5046616;28;20064;-76
2021/01/26 12:27:58;;;;;;;4.77;1.77;;;-0.10;99.90;;;;;;5045875;28;20059;-84
2021/01/26 12:30:24;;;;;;;3.67;2.07;;;0.00;99.90;;;;;;5031902;28;20475;-77
2021/01/26 12:32:50;;;;;;;5.97;2.67;;;0.10;99.90;;;;;;5046124;28;20060;-75
2021/01/26 12:35:26;;;;;;;4.20;1.97;;;0.10;99.90;;;;;;5033410;28;20496;-77
2021/01/26 12:37:52;;;;;;;4.80;1.90;;;0.10;99.90;;;;;;5039772;28;20037;-75
2021/01/26 12:40:20;;;;;;;2.70;1.53;;;0.00;99.90;;;;;;5045898;28;20024;-75
2021/01/26 12:42:46;;;;;;;7.73;1.77;;;0.00;99.90;;;;;;5038999;28;20036;-75
2021/01/26 12:45:16;;;;;;;4.37;2.07;;;0.10;99.90;;;;;;5047198;28;20127;-77
2021/01/26 12:47:43;;;;;;;3.77;2.00;;;0.10;99.90;;;;;;5045364;28;20102;-75
2021/01/26 12:50:12;;;;;;;2.67;1.40;;;0.20;99.90;;;;;;5046865;28;20475;-75
2021/01/26 12:52:37;;;;;;;4.22;1.50;;;0.20;99.90;;;;;;5046843;28;20396;-79
2021/01/26 12:55:04;;;;;;;3.63;1.80;;;0.20;99.90;;;;;;5050804;28;20033;-79
2021/01/26 12:57:29;;;;;;;4.13;1.87;;;0.20;99.90;;;;;;5047987;28;20033;-79
2021/01/26 12:59:55;;;;;;;4.63;2.27;;;0.10;99.90;;;;;;5051200;28;20443;-78
2021/01/26 13:02:22;;;;;;;5.43;1.97;;;0.10;99.90;;;;;;5042508;28;20029;-79
2021/01/26 13:04:48;;;;;;;3.77;1.80;;;0.20;99.90;;;;;;5045230;28;20062;-80
2021/01/26 13:07:17;;;;;;;3.40;1.67;;;0.20;99.90;;;;;;5050863;28;20091;-78
2021/01/26 13:09:43;;;;;;;3.40;1.92;;;0.10;99.90;;;;;;5051964;28;20124;-81
2021/01/26 13:12:09;;;;;;;2.23;1.50;;;0.10;99.90;;;;;;5041210;28;20029;-78
2021/01/26 13:14:34;;;;;;;4.27;2.30;;;0.20;99.90;;;;;;5049672;28;20032;-77
2021/01/26 13:17:00;;;;;;;5.57;1.90;;;0.20;99.90;;;;;;5055723;28;20035;-79